sensor_id;sensor_type;location;lat;lon;timestamp;temperature;humidity
52979;DHT22;63430;53.186;6.598;2022-09-28T00:01:33;7.90;99.90
52979;DHT22;63430;53.186;6.598;2022-09-28T00:03:36;7.90;99.90
52979;DHT22;63430;53.186;6.598;2022-09-28T00:05:39;7.90;99.90
52979;DHT22;63430;53.186;6.598;2022-09-28T00:07:43;7.80;99.90
52979;DHT22;63430;53.186;6.598;2022-09-28T00:09:48;7.90;99.90
52979;DHT22;63430;53.186;6.598;2022-09-28T00:11:51;7.80;99.90
52979;DHT22;63430;53.186;6.598;2022-09-28T00:13:56;7.90;99.90
52979;DHT22;63430;53.186;6.598;2022-09-28T00:16:06;7.90;99.90
52979;DHT22;63430;53.186;6.598;2022-09-28T00:18:10;8.50;99.90
52979;DHT22;63430;53.186;6.598;2022-09-28T00:20:13;7.90;99.90
52979;DHT22;63430;53.186;6.598;2022-09-28T00:22:15;7.90;99.90
52979;DHT22;63430;53.186;6.598;2022-09-28T00:24:18;9.00;99.90
52979;DHT22;63430;53.186;6.598;2022-09-28T00:26:32;8.90;99.90
52979;DHT22;63430;53.186;6.598;2022-09-28T00:28:34;9.20;99.90
52979;DHT22;63430;53.186;6.598;2022-09-28T00:30:38;8.50;99.90
52979;DHT22;63430;53.186;6.598;2022-09-28T00:32:40;8.70;99.90
52979;DHT22;63430;53.186;6.598;2022-09-28T00:34:43;8.00;99.90
52979;DHT22;63430;53.186;6.598;2022-09-28T00:36:50;7.90;99.90
52979;DHT22;63430;53.186;6.598;2022-09-28T00:38:52;9.10;99.90
52979;DHT22;63430;53.186;6.598;2022-09-28T00:40:57;7.90;99.90
52979;DHT22;63430;53.186;6.598;2022-09-28T00:43:21;7.90;99.90
52979;DHT22;63430;53.186;6.598;2022-09-28T00:45:25;7.90;99.90
52979;DHT22;63430;53.186;6.598;2022-09-28T00:47:40;7.90;99.90
52979;DHT22;63430;53.186;6.598;2022-09-28T00:49:47;7.90;99.90
52979;DHT22;63430;53.186;6.598;2022-09-28T00:51:50;7.80;99.90
52979;DHT22;63430;53.186;6.598;2022-09-28T00:53:53;7.80;99.90
52979;DHT22;63430;53.186;6.598;2022-09-28T00:56:02;7.80;99.90
52979;DHT22;63430;53.186;6.598;2022-09-28T00:58:09;7.80;99.90
52979;DHT22;63430;53.186;6.598;2022-09-28T01:00:15;7.80;99.90
52979;DHT22;63430;53.186;6.598;2022-09-28T01:02:19;7.80;99.90
52979;DHT22;63430;53.186;6.598;2022-09-28T01:04:22;7.80;99.90
52979;DHT22;63430;53.186;6.598;2022-09-28T01:06:32;7.80;99.90
52979;DHT22;63430;53.186;6.598;2022-09-28T01:08:35;7.80;99.90
52979;DHT22;63430;53.186;6.598;2022-09-28T01:10:38;7.80;99.90
52979;DHT22;63430;53.186;6.598;2022-09-28T01:12:42;7.70;99.90
52979;DHT22;63430;53.186;6.598;2022-09-28T01:14:45;8.20;99.90
52979;DHT22;63430;53.186;6.598;2022-09-28T01:16:56;7.70;99.90
52979;DHT22;63430;53.186;6.598;2022-09-28T01:19:22;7.70;99.90
52979;DHT22;63430;53.186;6.598;2022-09-28T01:21:27;7.60;99.90
52979;DHT22;63430;53.186;6.598;2022-09-28T01:28:29;7.60;99.90
52979;DHT22;63430;53.186;6.598;2022-09-28T01:30:41;7.50;99.90
52979;DHT22;63430;53.186;6.598;2022-09-28T01:32:49;7.60;99.90
52979;DHT22;63430;53.186;6.598;2022-09-28T01:34:56;7.70;99.90
52979;DHT22;63430;53.186;6.598;2022-09-28T01:37:04;7.90;99.90
52979;DHT22;63430;53.186;6.598;2022-09-28T01:39:10;7.40;99.90
52979;DHT22;63430;53.186;6.598;2022-09-28T01:41:15;7.40;99.90
52979;DHT22;63430;53.186;6.598;2022-09-28T01:43:21;7.30;99.90
52979;DHT22;63430;53.186;6.598;2022-09-28T01:45:32;7.30;99.90
52979;DHT22;63430;53.186;6.598;2022-09-28T01:47:37;7.20;99.90
52979;DHT22;63430;53.186;6.598;2022-09-28T01:49:43;7.10;99.90
52979;DHT22;63430;53.186;6.598;2022-09-28T01:51:50;7.10;99.90
52979;DHT22;63430;53.186;6.598;2022-09-28T01:54:00;7.10;99.90
52979;DHT22;63430;53.186;6.598;2022-09-28T01:56:09;7.10;99.90
52979;DHT22;63430;53.186;6.598;2022-09-28T01:58:18;7.10;99.90
52979;DHT22;63430;53.186;6.598;2022-09-28T02:00:23;7.00;99.90
52979;DHT22;63430;53.186;6.598;2022-09-28T02:02:32;7.00;99.90
52979;DHT22;63430;53.186;6.598;2022-09-28T02:04:39;7.00;99.90
52979;DHT22;63430;53.186;6.598;2022-09-28T02:06:46;6.90;99.90
52979;DHT22;63430;53.186;6.598;2022-09-28T02:08:52;7.20;99.90
52979;DHT22;63430;53.186;6.598;2022-09-28T02:11:00;6.70;99.90
52979;DHT22;63430;53.186;6.598;2022-09-28T02:13:11;6.70;99.90
52979;DHT22;63430;53.186;6.598;2022-09-28T02:15:19;6.70;99.90
52979;DHT22;63430;53.186;6.598;2022-09-28T02:17:24;6.70;99.90
52979;DHT22;63430;53.186;6.598;2022-09-28T02:19:30;6.70;99.90
52979;DHT22;63430;53.186;6.598;2022-09-28T02:21:39;6.70;99.90
52979;DHT22;63430;53.186;6.598;2022-09-28T02:23:51;6.70;99.90
52979;DHT22;63430;53.186;6.598;2022-09-28T02:26:01;6.70;99.90
52979;DHT22;63430;53.186;6.598;2022-09-28T02:28:07;8.00;99.90
52979;DHT22;63430;53.186;6.598;2022-09-28T02:30:10;6.80;99.90
52979;DHT22;63430;53.186;6.598;2022-09-28T02:32:13;6.80;99.90
52979;DHT22;63430;53.186;6.598;2022-09-28T02:34:17;6.80;99.90
52979;DHT22;63430;53.186;6.598;2022-09-28T02:36:24;6.80;99.90
52979;DHT22;63430;53.186;6.598;2022-09-28T02:38:26;7.10;99.90
52979;DHT22;63430;53.186;6.598;2022-09-28T02:40:31;6.70;99.90
52979;DHT22;63430;53.186;6.598;2022-09-28T02:42:39;6.80;99.90
52979;DHT22;63430;53.186;6.598;2022-09-28T02:44:52;6.80;99.90
52979;DHT22;63430;53.186;6.598;2022-09-28T02:47:08;6.80;99.90
52979;DHT22;63430;53.186;6.598;2022-09-28T02:49:20;7.20;99.90
52979;DHT22;63430;53.186;6.598;2022-09-28T02:51:33;6.90;99.90
52979;DHT22;63430;53.186;6.598;2022-09-28T02:53:54;6.90;99.90
52979;DHT22;63430;53.186;6.598;2022-09-28T02:56:16;6.90;99.90
52979;DHT22;63430;53.186;6.598;2022-09-28T02:58:32;7.00;99.90
52979;DHT22;63430;53.186;6.598;2022-09-28T03:00:41;7.00;99.90
52979;DHT22;63430;53.186;6.598;2022-09-28T03:02:54;7.00;99.90
52979;DHT22;63430;53.186;6.598;2022-09-28T03:05:11;7.00;99.90
52979;DHT22;63430;53.186;6.598;2022-09-28T03:07:23;7.00;99.90
52979;DHT22;63430;53.186;6.598;2022-09-28T03:09:32;7.00;99.90
52979;DHT22;63430;53.186;6.598;2022-09-28T03:11:39;6.90;99.90
52979;DHT22;63430;53.186;6.598;2022-09-28T03:13:45;6.90;99.90
52979;DHT22;63430;53.186;6.598;2022-09-28T03:15:48;7.30;99.90
52979;DHT22;63430;53.186;6.598;2022-09-28T03:17:51;7.30;99.90
52979;DHT22;63430;53.186;6.598;2022-09-28T03:19:53;7.00;99.90
52979;DHT22;63430;53.186;6.598;2022-09-28T03:21:59;7.00;99.90
52979;DHT22;63430;53.186;6.598;2022-09-28T03:24:06;7.00;99.90
52979;DHT22;63430;53.186;6.598;2022-09-28T03:26:11;7.10;99.90
52979;DHT22;63430;53.186;6.598;2022-09-28T03:28:14;7.10;99.90
52979;DHT22;63430;53.186;6.598;2022-09-28T03:30:16;7.10;99.90
52979;DHT22;63430;53.186;6.598;2022-09-28T03:32:19;7.10;99.90
52979;DHT22;63430;53.186;6.598;2022-09-28T03:34:21;7.20;99.90
52979;DHT22;63430;53.186;6.598;2022-09-28T03:36:25;7.20;99.90
52979;DHT22;63430;53.186;6.598;2022-09-28T03:38:27;7.20;99.90
52979;DHT22;63430;53.186;6.598;2022-09-28T03:40:33;7.20;99.90
52979;DHT22;63430;53.186;6.598;2022-09-28T03:42:35;7.10;99.90
52979;DHT22;63430;53.186;6.598;2022-09-28T03:44:39;7.10;99.90
52979;DHT22;63430;53.186;6.598;2022-09-28T03:46:44;7.10;99.90
52979;DHT22;63430;53.186;6.598;2022-09-28T03:48:47;7.10;99.90
52979;DHT22;63430;53.186;6.598;2022-09-28T03:50:53;7.10;99.90
52979;DHT22;63430;53.186;6.598;2022-09-28T03:53:01;7.10;99.90
52979;DHT22;63430;53.186;6.598;2022-09-28T03:55:05;7.00;99.90
52979;DHT22;63430;53.186;6.598;2022-09-28T03:57:12;7.00;99.90
52979;DHT22;63430;53.186;6.598;2022-09-28T03:59:17;6.90;99.90
52979;DHT22;63430;53.186;6.598;2022-09-28T04:01:20;6.90;99.90
52979;DHT22;63430;53.186;6.598;2022-09-28T04:03:23;6.90;99.90
52979;DHT22;63430;53.186;6.598;2022-09-28T04:05:25;6.80;99.90
52979;DHT22;63430;53.186;6.598;2022-09-28T04:07:27;6.80;99.90
52979;DHT22;63430;53.186;6.598;2022-09-28T04:09:33;6.80;99.90
52979;DHT22;63430;53.186;6.598;2022-09-28T04:11:36;6.80;99.90
52979;DHT22;63430;53.186;6.598;2022-09-28T04:14:01;6.70;99.90
52979;DHT22;63430;53.186;6.598;2022-09-28T04:16:05;6.70;99.90
52979;DHT22;63430;53.186;6.598;2022-09-28T04:18:09;6.70;99.90
52979;DHT22;63430;53.186;6.598;2022-09-28T04:20:11;6.70;99.90
52979;DHT22;63430;53.186;6.598;2022-09-28T04:22:14;6.70;99.90
52979;DHT22;63430;53.186;6.598;2022-09-28T04:24:16;6.70;99.90
52979;DHT22;63430;53.186;6.598;2022-09-28T04:26:20;6.70;99.90
52979;DHT22;63430;53.186;6.598;2022-09-28T04:28:23;6.70;99.90
52979;DHT22;63430;53.186;6.598;2022-09-28T04:30:48;6.70;99.90
52979;DHT22;63430;53.186;6.598;2022-09-28T04:32:50;6.70;99.90
52979;DHT22;63430;53.186;6.598;2022-09-28T04:34:55;7.00;99.90
52979;DHT22;63430;53.186;6.598;2022-09-28T04:36:58;6.70;99.90
52979;DHT22;63430;53.186;6.598;2022-09-28T04:39:00;6.60;99.90
52979;DHT22;63430;53.186;6.598;2022-09-28T04:41:04;6.70;99.90
52979;DHT22;63430;53.186;6.598;2022-09-28T04:43:07;6.60;99.90
52979;DHT22;63430;53.186;6.598;2022-09-28T04:45:10;7.00;99.90
52979;DHT22;63430;53.186;6.598;2022-09-28T04:47:14;6.60;99.90
52979;DHT22;63430;53.186;6.598;2022-09-28T04:49:17;6.70;99.90
52979;DHT22;63430;53.186;6.598;2022-09-28T04:51:22;6.70;99.90
52979;DHT22;63430;53.186;6.598;2022-09-28T04:53:26;7.40;99.90
52979;DHT22;63430;53.186;6.598;2022-09-28T04:55:28;6.70;99.90
52979;DHT22;63430;53.186;6.598;2022-09-28T04:57:33;6.70;99.90
52979;DHT22;63430;53.186;6.598;2022-09-28T04:59:40;6.70;99.90
52979;DHT22;63430;53.186;6.598;2022-09-28T05:01:43;6.70;99.90
52979;DHT22;63430;53.186;6.598;2022-09-28T05:03:48;6.70;99.90
52979;DHT22;63430;53.186;6.598;2022-09-28T05:05:51;6.80;99.90
52979;DHT22;63430;53.186;6.598;2022-09-28T05:07:56;6.80;99.90
52979;DHT22;63430;53.186;6.598;2022-09-28T05:09:59;6.80;99.90
52979;DHT22;63430;53.186;6.598;2022-09-28T05:12:02;6.80;99.90
52979;DHT22;63430;53.186;6.598;2022-09-28T05:14:05;6.80;99.90
52979;DHT22;63430;53.186;6.598;2022-09-28T05:16:08;6.80;99.90
52979;DHT22;63430;53.186;6.598;2022-09-28T05:18:11;6.80;99.90
52979;DHT22;63430;53.186;6.598;2022-09-28T05:20:17;6.80;99.90
52979;DHT22;63430;53.186;6.598;2022-09-28T05:22:20;6.80;99.90
52979;DHT22;63430;53.186;6.598;2022-09-28T05:24:22;6.80;99.90
52979;DHT22;63430;53.186;6.598;2022-09-28T05:26:27;6.80;99.90
52979;DHT22;63430;53.186;6.598;2022-09-28T05:28:31;6.80;99.90
52979;DHT22;63430;53.186;6.598;2022-09-28T05:30:34;6.80;99.90
52979;DHT22;63430;53.186;6.598;2022-09-28T05:32:39;6.80;99.90
52979;DHT22;63430;53.186;6.598;2022-09-28T05:34:41;7.00;99.90
52979;DHT22;63430;53.186;6.598;2022-09-28T05:36:46;6.80;99.90
52979;DHT22;63430;53.186;6.598;2022-09-28T05:38:48;6.80;99.90
52979;DHT22;63430;53.186;6.598;2022-09-28T05:40:50;6.80;99.90
52979;DHT22;63430;53.186;6.598;2022-09-28T05:42:57;6.70;99.90
52979;DHT22;63430;53.186;6.598;2022-09-28T05:45:00;6.70;99.90
52979;DHT22;63430;53.186;6.598;2022-09-28T05:47:04;6.80;99.90
52979;DHT22;63430;53.186;6.598;2022-09-28T05:49:06;8.00;99.90
52979;DHT22;63430;53.186;6.598;2022-09-28T05:51:09;6.70;99.90
52979;DHT22;63430;53.186;6.598;2022-09-28T05:53:14;6.70;99.90
52979;DHT22;63430;53.186;6.598;2022-09-28T05:55:16;6.70;99.90
52979;DHT22;63430;53.186;6.598;2022-09-28T05:57:19;6.90;99.90
52979;DHT22;63430;53.186;6.598;2022-09-28T05:59:21;6.70;99.90
52979;DHT22;63430;53.186;6.598;2022-09-28T06:01:24;6.70;99.90
52979;DHT22;63430;53.186;6.598;2022-09-28T06:03:27;6.70;99.90
52979;DHT22;63430;53.186;6.598;2022-09-28T06:05:30;7.00;99.90
52979;DHT22;63430;53.186;6.598;2022-09-28T06:07:33;6.70;99.90
52979;DHT22;63430;53.186;6.598;2022-09-28T06:09:38;7.40;99.90
52979;DHT22;63430;53.186;6.598;2022-09-28T06:11:40;7.60;99.90
52979;DHT22;63430;53.186;6.598;2022-09-28T06:13:43;6.70;99.90
52979;DHT22;63430;53.186;6.598;2022-09-28T06:15:45;6.70;99.90
52979;DHT22;63430;53.186;6.598;2022-09-28T06:17:54;6.70;99.90
52979;DHT22;63430;53.186;6.598;2022-09-28T06:20:00;6.80;99.90
52979;DHT22;63430;53.186;6.598;2022-09-28T06:22:05;6.70;99.90
52979;DHT22;63430;53.186;6.598;2022-09-28T06:24:08;6.70;99.90
52979;DHT22;63430;53.186;6.598;2022-09-28T06:26:13;6.70;99.90
52979;DHT22;63430;53.186;6.598;2022-09-28T06:28:15;6.70;99.90
52979;DHT22;63430;53.186;6.598;2022-09-28T06:30:18;6.70;99.90
52979;DHT22;63430;53.186;6.598;2022-09-28T06:32:20;6.80;99.90
52979;DHT22;63430;53.186;6.598;2022-09-28T06:34:22;6.80;99.90
52979;DHT22;63430;53.186;6.598;2022-09-28T06:36:28;6.80;99.90
52979;DHT22;63430;53.186;6.598;2022-09-28T06:38:32;6.80;99.90
52979;DHT22;63430;53.186;6.598;2022-09-28T06:40:35;6.80;99.90
52979;DHT22;63430;53.186;6.598;2022-09-28T06:42:44;6.90;99.90
52979;DHT22;63430;53.186;6.598;2022-09-28T06:44:49;6.90;99.90
52979;DHT22;63430;53.186;6.598;2022-09-28T06:46:51;6.90;99.90
52979;DHT22;63430;53.186;6.598;2022-09-28T06:48:54;7.00;99.90
52979;DHT22;63430;53.186;6.598;2022-09-28T06:50:56;7.00;99.90
52979;DHT22;63430;53.186;6.598;2022-09-28T06:52:59;7.10;99.90
52979;DHT22;63430;53.186;6.598;2022-09-28T06:55:05;7.20;99.90
52979;DHT22;63430;53.186;6.598;2022-09-28T06:57:08;7.20;99.90
52979;DHT22;63430;53.186;6.598;2022-09-28T06:59:13;7.30;99.90
52979;DHT22;63430;53.186;6.598;2022-09-28T07:01:15;7.30;99.90
52979;DHT22;63430;53.186;6.598;2022-09-28T07:03:19;7.40;99.90
52979;DHT22;63430;53.186;6.598;2022-09-28T07:05:21;7.40;99.90
52979;DHT22;63430;53.186;6.598;2022-09-28T07:07:28;7.40;99.90
52979;DHT22;63430;53.186;6.598;2022-09-28T07:09:32;7.40;99.90
52979;DHT22;63430;53.186;6.598;2022-09-28T07:11:39;7.50;99.90
52979;DHT22;63430;53.186;6.598;2022-09-28T07:13:41;7.60;99.90
52979;DHT22;63430;53.186;6.598;2022-09-28T07:15:56;7.50;99.90
52979;DHT22;63430;53.186;6.598;2022-09-28T07:18:00;7.60;99.90
52979;DHT22;63430;53.186;6.598;2022-09-28T07:20:05;7.60;99.90
52979;DHT22;63430;53.186;6.598;2022-09-28T07:22:22;7.60;99.90
52979;DHT22;63430;53.186;6.598;2022-09-28T07:24:45;7.70;99.90
52979;DHT22;63430;53.186;6.598;2022-09-28T07:26:48;7.70;99.90
52979;DHT22;63430;53.186;6.598;2022-09-28T07:28:52;7.80;99.90
52979;DHT22;63430;53.186;6.598;2022-09-28T07:30:59;7.70;99.90
52979;DHT22;63430;53.186;6.598;2022-09-28T07:33:06;7.80;99.90
52979;DHT22;63430;53.186;6.598;2022-09-28T07:35:08;7.90;99.90
52979;DHT22;63430;53.186;6.598;2022-09-28T07:37:11;8.00;99.90
52979;DHT22;63430;53.186;6.598;2022-09-28T07:39:14;8.00;99.90
52979;DHT22;63430;53.186;6.598;2022-09-28T07:41:16;8.10;99.90
52979;DHT22;63430;53.186;6.598;2022-09-28T07:43:23;8.10;99.90
52979;DHT22;63430;53.186;6.598;2022-09-28T07:45:25;8.10;99.90
52979;DHT22;63430;53.186;6.598;2022-09-28T07:47:30;8.30;99.90
52979;DHT22;63430;53.186;6.598;2022-09-28T07:49:36;8.30;99.90
52979;DHT22;63430;53.186;6.598;2022-09-28T07:51:38;8.40;99.90
52979;DHT22;63430;53.186;6.598;2022-09-28T07:53:40;8.50;99.90
52979;DHT22;63430;53.186;6.598;2022-09-28T07:55:43;8.50;99.90
52979;DHT22;63430;53.186;6.598;2022-09-28T07:57:45;8.60;99.90
52979;DHT22;63430;53.186;6.598;2022-09-28T07:59:49;8.60;99.90
52979;DHT22;63430;53.186;6.598;2022-09-28T08:01:54;8.60;99.90
52979;DHT22;63430;53.186;6.598;2022-09-28T08:03:59;8.60;99.90
52979;DHT22;63430;53.186;6.598;2022-09-28T08:06:04;8.70;99.90
52979;DHT22;63430;53.186;6.598;2022-09-28T08:08:08;8.80;99.90
52979;DHT22;63430;53.186;6.598;2022-09-28T08:10:10;8.90;99.90
52979;DHT22;63430;53.186;6.598;2022-09-28T08:12:13;9.00;99.90
52979;DHT22;63430;53.186;6.598;2022-09-28T08:14:16;9.10;99.90
52979;DHT22;63430;53.186;6.598;2022-09-28T08:16:21;9.10;99.90
52979;DHT22;63430;53.186;6.598;2022-09-28T08:18:27;9.10;99.90
52979;DHT22;63430;53.186;6.598;2022-09-28T08:20:34;9.20;99.90
52979;DHT22;63430;53.186;6.598;2022-09-28T08:22:55;9.30;99.90
52979;DHT22;63430;53.186;6.598;2022-09-28T08:25:04;9.40;99.90
52979;DHT22;63430;53.186;6.598;2022-09-28T08:27:06;9.40;99.90
52979;DHT22;63430;53.186;6.598;2022-09-28T08:29:11;9.40;99.90
52979;DHT22;63430;53.186;6.598;2022-09-28T08:31:13;9.50;99.90
52979;DHT22;63430;53.186;6.598;2022-09-28T08:33:17;9.50;99.90
52979;DHT22;63430;53.186;6.598;2022-09-28T08:35:24;9.60;99.90
52979;DHT22;63430;53.186;6.598;2022-09-28T08:37:30;9.70;99.90
52979;DHT22;63430;53.186;6.598;2022-09-28T08:39:35;9.70;99.90
52979;DHT22;63430;53.186;6.598;2022-09-28T08:41:41;9.80;99.90
52979;DHT22;63430;53.186;6.598;2022-09-28T08:43:59;9.90;99.90
52979;DHT22;63430;53.186;6.598;2022-09-28T08:46:11;10.00;99.90
52979;DHT22;63430;53.186;6.598;2022-09-28T08:48:20;10.10;99.90
52979;DHT22;63430;53.186;6.598;2022-09-28T08:50:58;10.00;99.90
52979;DHT22;63430;53.186;6.598;2022-09-28T08:53:17;10.00;99.90
52979;DHT22;63430;53.186;6.598;2022-09-28T08:55:25;10.00;99.90
52979;DHT22;63430;53.186;6.598;2022-09-28T08:57:34;10.10;99.90
52979;DHT22;63430;53.186;6.598;2022-09-28T08:59:48;10.20;99.90
52979;DHT22;63430;53.186;6.598;2022-09-28T09:01:54;10.70;99.90
52979;DHT22;63430;53.186;6.598;2022-09-28T09:03:59;10.60;99.90
52979;DHT22;63430;53.186;6.598;2022-09-28T09:06:06;10.70;99.90
52979;DHT22;63430;53.186;6.598;2022-09-28T09:08:28;10.70;99.90
52979;DHT22;63430;53.186;6.598;2022-09-28T09:10:49;10.70;99.90
52979;DHT22;63430;53.186;6.598;2022-09-28T09:13:01;10.70;99.90
52979;DHT22;63430;53.186;6.598;2022-09-28T09:15:17;10.70;99.90
52979;DHT22;63430;53.186;6.598;2022-09-28T09:17:27;10.80;99.90
52979;DHT22;63430;53.186;6.598;2022-09-28T09:19:39;10.90;99.90
52979;DHT22;63430;53.186;6.598;2022-09-28T09:21:50;11.00;99.90
52979;DHT22;63430;53.186;6.598;2022-09-28T09:24:05;11.20;99.90
52979;DHT22;63430;53.186;6.598;2022-09-28T09:26:16;11.50;99.90
52979;DHT22;63430;53.186;6.598;2022-09-28T09:28:41;11.90;99.90
52979;DHT22;63430;53.186;6.598;2022-09-28T09:30:53;11.90;99.90
52979;DHT22;63430;53.186;6.598;2022-09-28T09:33:14;12.20;99.90
52979;DHT22;63430;53.186;6.598;2022-09-28T09:38:06;12.40;99.90
52979;DHT22;63430;53.186;6.598;2022-09-28T09:40:26;12.50;99.90
52979;DHT22;63430;53.186;6.598;2022-09-28T09:42:43;12.60;99.90
52979;DHT22;63430;53.186;6.598;2022-09-28T09:45:02;12.80;99.90
52979;DHT22;63430;53.186;6.598;2022-09-28T09:47:13;13.00;99.90
52979;DHT22;63430;53.186;6.598;2022-09-28T09:49:20;13.20;99.90
52979;DHT22;63430;53.186;6.598;2022-09-28T09:51:32;13.30;99.90
52979;DHT22;63430;53.186;6.598;2022-09-28T09:56:09;13.60;99.90
52979;DHT22;63430;53.186;6.598;2022-09-28T09:58:19;13.70;99.90
52979;DHT22;63430;53.186;6.598;2022-09-28T10:00:23;13.90;99.90
52979;DHT22;63430;53.186;6.598;2022-09-28T10:02:28;14.00;99.90
52979;DHT22;63430;53.186;6.598;2022-09-28T10:04:35;14.10;99.90
52979;DHT22;63430;53.186;6.598;2022-09-28T10:06:41;14.40;99.90
52979;DHT22;63430;53.186;6.598;2022-09-28T10:08:47;13.90;99.90
52979;DHT22;63430;53.186;6.598;2022-09-28T10:10:54;14.10;99.90
52979;DHT22;63430;53.186;6.598;2022-09-28T10:13:10;14.10;99.90
52979;DHT22;63430;53.186;6.598;2022-09-28T10:15:15;14.40;99.90
52979;DHT22;63430;53.186;6.598;2022-09-28T10:17:21;14.20;99.90
52979;DHT22;63430;53.186;6.598;2022-09-28T10:19:31;14.20;99.90
52979;DHT22;63430;53.186;6.598;2022-09-28T10:21:35;14.40;99.90
52979;DHT22;63430;53.186;6.598;2022-09-28T10:23:41;14.50;99.90
52979;DHT22;63430;53.186;6.598;2022-09-28T10:25:45;14.60;99.90
52979;DHT22;63430;53.186;6.598;2022-09-28T10:27:49;14.70;99.90
52979;DHT22;63430;53.186;6.598;2022-09-28T10:29:58;14.70;99.90
52979;DHT22;63430;53.186;6.598;2022-09-28T10:32:17;14.80;99.90
52979;DHT22;63430;53.186;6.598;2022-09-28T10:34:26;14.80;99.90
52979;DHT22;63430;53.186;6.598;2022-09-28T10:36:28;14.80;99.90
52979;DHT22;63430;53.186;6.598;2022-09-28T10:38:36;14.70;99.90
52979;DHT22;63430;53.186;6.598;2022-09-28T10:40:41;14.60;99.90
52979;DHT22;63430;53.186;6.598;2022-09-28T10:42:46;14.50;99.90
52979;DHT22;63430;53.186;6.598;2022-09-28T10:44:52;14.40;99.90
52979;DHT22;63430;53.186;6.598;2022-09-28T10:46:59;14.40;99.90
52979;DHT22;63430;53.186;6.598;2022-09-28T10:49:03;14.30;99.90
52979;DHT22;63430;53.186;6.598;2022-09-28T10:51:07;14.20;99.90
52979;DHT22;63430;53.186;6.598;2022-09-28T10:53:11;14.10;99.90
52979;DHT22;63430;53.186;6.598;2022-09-28T10:55:29;14.00;99.90
52979;DHT22;63430;53.186;6.598;2022-09-28T10:57:34;13.80;99.90
52979;DHT22;63430;53.186;6.598;2022-09-28T10:59:39;13.70;99.90
52979;DHT22;63430;53.186;6.598;2022-09-28T11:01:42;13.70;99.90
52979;DHT22;63430;53.186;6.598;2022-09-28T11:03:54;13.60;99.90
52979;DHT22;63430;53.186;6.598;2022-09-28T11:05:59;13.60;99.90
52979;DHT22;63430;53.186;6.598;2022-09-28T11:08:05;13.60;99.90
52979;DHT22;63430;53.186;6.598;2022-09-28T11:10:19;13.60;99.90
52979;DHT22;63430;53.186;6.598;2022-09-28T11:12:23;13.60;99.90
52979;DHT22;63430;53.186;6.598;2022-09-28T11:14:32;13.60;99.90
52979;DHT22;63430;53.186;6.598;2022-09-28T11:16:43;13.60;99.90
52979;DHT22;63430;53.186;6.598;2022-09-28T11:18:46;13.60;99.90
52979;DHT22;63430;53.186;6.598;2022-09-28T11:21:06;13.60;99.90
52979;DHT22;63430;53.186;6.598;2022-09-28T11:23:19;13.70;99.90
52979;DHT22;63430;53.186;6.598;2022-09-28T11:25:25;13.80;99.90
52979;DHT22;63430;53.186;6.598;2022-09-28T11:27:37;13.80;99.90
52979;DHT22;63430;53.186;6.598;2022-09-28T11:29:40;13.90;99.90
52979;DHT22;63430;53.186;6.598;2022-09-28T11:31:45;14.00;99.90
52979;DHT22;63430;53.186;6.598;2022-09-28T11:33:48;14.10;99.90
52979;DHT22;63430;53.186;6.598;2022-09-28T11:36:12;14.00;99.90
52979;DHT22;63430;53.186;6.598;2022-09-28T11:38:30;13.90;99.90
52979;DHT22;63430;53.186;6.598;2022-09-28T11:40:45;13.90;99.90
52979;DHT22;63430;53.186;6.598;2022-09-28T11:43:00;13.90;99.90
52979;DHT22;63430;53.186;6.598;2022-09-28T11:45:23;13.90;99.90
52979;DHT22;63430;53.186;6.598;2022-09-28T11:47:44;13.90;99.90
52979;DHT22;63430;53.186;6.598;2022-09-28T11:49:51;13.90;99.90
52979;DHT22;63430;53.186;6.598;2022-09-28T11:52:01;13.40;99.90
52979;DHT22;63430;53.186;6.598;2022-09-28T11:54:10;13.80;99.90
52979;DHT22;63430;53.186;6.598;2022-09-28T11:56:18;13.80;99.90
52979;DHT22;63430;53.186;6.598;2022-09-28T11:58:28;13.70;99.90
52979;DHT22;63430;53.186;6.598;2022-09-28T12:00:35;13.70;99.90
52979;DHT22;63430;53.186;6.598;2022-09-28T12:02:43;13.70;99.90
52979;DHT22;63430;53.186;6.598;2022-09-28T12:04:51;13.70;99.90
52979;DHT22;63430;53.186;6.598;2022-09-28T12:07:03;13.60;99.90
52979;DHT22;63430;53.186;6.598;2022-09-28T12:09:15;13.50;99.90
52979;DHT22;63430;53.186;6.598;2022-09-28T12:11:21;13.40;99.90
52979;DHT22;63430;53.186;6.598;2022-09-28T12:13:27;13.30;99.90
52979;DHT22;63430;53.186;6.598;2022-09-28T12:15:37;13.10;99.90
52979;DHT22;63430;53.186;6.598;2022-09-28T12:18:05;14.10;99.90
52979;DHT22;63430;53.186;6.598;2022-09-28T12:20:15;12.90;99.90
52979;DHT22;63430;53.186;6.598;2022-09-28T12:22:24;13.00;99.90
52979;DHT22;63430;53.186;6.598;2022-09-28T12:24:31;12.80;99.90
52979;DHT22;63430;53.186;6.598;2022-09-28T12:26:41;12.80;99.90
52979;DHT22;63430;53.186;6.598;2022-09-28T12:28:47;12.90;99.90
52979;DHT22;63430;53.186;6.598;2022-09-28T12:30:51;12.90;99.90
52979;DHT22;63430;53.186;6.598;2022-09-28T12:32:59;12.90;99.90
52979;DHT22;63430;53.186;6.598;2022-09-28T12:35:10;13.00;99.90
52979;DHT22;63430;53.186;6.598;2022-09-28T12:37:33;13.10;99.90
52979;DHT22;63430;53.186;6.598;2022-09-28T12:39:57;13.30;99.90
52979;DHT22;63430;53.186;6.598;2022-09-28T12:42:16;13.20;99.90
52979;DHT22;63430;53.186;6.598;2022-09-28T12:44:32;13.30;99.90
52979;DHT22;63430;53.186;6.598;2022-09-28T12:46:48;13.30;99.90
52979;DHT22;63430;53.186;6.598;2022-09-28T12:51:54;13.40;99.90
52979;DHT22;63430;53.186;6.598;2022-09-28T12:54:14;13.30;99.90
52979;DHT22;63430;53.186;6.598;2022-09-28T12:56:26;13.70;99.90
52979;DHT22;63430;53.186;6.598;2022-09-28T12:58:42;13.80;99.90
52979;DHT22;63430;53.186;6.598;2022-09-28T13:00:59;13.10;99.90
52979;DHT22;63430;53.186;6.598;2022-09-28T13:03:25;13.10;99.90
52979;DHT22;63430;53.186;6.598;2022-09-28T13:05:46;12.90;99.90
52979;DHT22;63430;53.186;6.598;2022-09-28T13:07:55;12.90;99.90
52979;DHT22;63430;53.186;6.598;2022-09-28T13:10:09;12.80;99.90
52979;DHT22;63430;53.186;6.598;2022-09-28T13:12:26;12.70;99.90
52979;DHT22;63430;53.186;6.598;2022-09-28T13:14:46;12.70;99.90
52979;DHT22;63430;53.186;6.598;2022-09-28T13:16:55;12.60;99.90
52979;DHT22;63430;53.186;6.598;2022-09-28T13:19:10;12.50;99.90
52979;DHT22;63430;53.186;6.598;2022-09-28T13:21:22;12.50;99.90
52979;DHT22;63430;53.186;6.598;2022-09-28T13:23:29;12.50;99.90
52979;DHT22;63430;53.186;6.598;2022-09-28T13:25:41;12.40;99.90
52979;DHT22;63430;53.186;6.598;2022-09-28T13:27:50;12.40;99.90
52979;DHT22;63430;53.186;6.598;2022-09-28T13:29:53;12.30;99.90
52979;DHT22;63430;53.186;6.598;2022-09-28T13:32:02;12.20;99.90
52979;DHT22;63430;53.186;6.598;2022-09-28T13:34:05;12.20;99.90
52979;DHT22;63430;53.186;6.598;2022-09-28T13:36:35;12.10;99.90
52979;DHT22;63430;53.186;6.598;2022-09-28T13:38:45;12.00;99.90
52979;DHT22;63430;53.186;6.598;2022-09-28T13:41:12;12.00;99.90
52979;DHT22;63430;53.186;6.598;2022-09-28T13:43:21;12.00;99.90
52979;DHT22;63430;53.186;6.598;2022-09-28T13:45:36;12.00;99.90
52979;DHT22;63430;53.186;6.598;2022-09-28T13:48:10;12.10;99.90